createdAt,value
2023-04-18T00:00:25.456Z,4.97
2023-04-18T00:02:55.146Z,5.00
2023-04-18T00:05:23.502Z,4.86
2023-04-18T00:07:52.821Z,4.93
2023-04-18T00:10:20.759Z,4.78
2023-04-18T00:12:50.007Z,4.89
2023-04-18T00:15:18.519Z,4.75
2023-04-18T00:17:48.230Z,4.80
2023-04-18T00:20:16.272Z,4.77
2023-04-18T00:22:46.726Z,4.75
2023-04-18T00:25:14.745Z,4.75
2023-04-18T00:27:42.986Z,4.76
2023-04-18T00:30:13.297Z,4.79
2023-04-18T00:32:41.351Z,4.79
2023-04-18T00:35:09.972Z,4.72
2023-04-18T00:37:38.290Z,4.74
2023-04-18T00:40:07.434Z,4.82
2023-04-18T00:42:35.442Z,4.68
2023-04-18T00:45:03.380Z,4.67
2023-04-18T00:47:32.801Z,4.61
2023-04-18T00:50:00.902Z,4.52
2023-04-18T00:52:29.090Z,4.54
2023-04-18T00:54:57.407Z,4.51
2023-04-18T00:57:25.792Z,4.42
2023-04-18T00:59:53.753Z,4.42
2023-04-18T01:02:22.327Z,4.37
2023-04-18T01:04:52.210Z,4.41
2023-04-18T01:07:20.267Z,4.33
2023-04-18T01:09:48.458Z,4.30
2023-04-18T01:12:16.653Z,4.27
2023-04-18T01:19:06.206Z,4.19
2023-04-18T01:21:37.355Z,4.31
2023-04-18T01:24:11.367Z,4.34
2023-04-18T01:26:43.662Z,4.31
2023-04-18T01:29:12.029Z,4.33
2023-04-18T01:31:40.633Z,4.27
2023-04-18T01:34:09.257Z,4.26
2023-04-18T01:36:38.612Z,4.37
2023-04-18T01:39:06.750Z,4.44
2023-04-18T01:41:36.571Z,4.34
2023-04-18T01:44:04.908Z,4.33
2023-04-18T01:46:32.825Z,4.52
2023-04-18T01:49:02.547Z,4.40
2023-04-18T01:51:31.414Z,4.28
2023-04-18T01:53:59.416Z,4.30
2023-04-18T01:56:27.373Z,4.29
2023-04-18T01:58:56.744Z,4.25
2023-04-18T02:01:24.779Z,4.35
2023-04-18T02:03:53.104Z,4.32
2023-04-18T02:06:21.340Z,4.23
2023-04-18T02:08:49.260Z,4.22
2023-04-18T02:11:17.195Z,4.23
2023-04-18T02:13:45.153Z,4.19
2023-04-18T02:16:14.868Z,4.26
2023-04-18T02:18:44.828Z,4.34
2023-04-18T02:21:14.846Z,4.54
2023-04-18T02:23:42.876Z,4.57
2023-04-18T02:26:10.828Z,4.56
2023-04-18T02:28:39.210Z,4.59
2023-04-18T02:31:14.429Z,4.51
2023-04-18T02:33:48.424Z,4.60
2023-04-18T02:36:16.941Z,4.32
2023-04-18T02:38:45.583Z,4.53
2023-04-18T02:41:17.433Z,4.49
2023-04-18T02:43:48.236Z,4.37
2023-04-18T02:46:18.066Z,4.40
2023-04-18T02:48:50.215Z,4.53
2023-04-18T02:51:20.620Z,4.53
2023-04-18T02:53:49.348Z,4.55
2023-04-18T02:56:18.158Z,4.55
2023-04-18T02:59:05.076Z,4.51
2023-04-18T03:01:59.700Z,4.48
2023-04-18T03:04:29.501Z,4.58
2023-04-18T03:07:00.953Z,4.61
2023-04-18T03:09:32.234Z,4.70
2023-04-18T03:12:06.207Z,4.84
2023-04-18T03:14:36.100Z,4.80
2023-04-18T03:17:04.329Z,4.86
2023-04-18T03:19:39.710Z,4.90
2023-04-18T03:22:11.266Z,5.00
2023-04-18T03:24:46.250Z,4.93
2023-04-18T03:27:15.901Z,5.01
2023-04-18T03:29:46.076Z,4.98
2023-04-18T03:32:14.821Z,5.02
2023-04-18T03:34:44.414Z,5.07
2023-04-18T03:37:12.384Z,4.94
2023-04-18T03:39:45.784Z,4.95
2023-04-18T03:42:14.136Z,4.95
2023-04-18T03:44:43.186Z,5.17
2023-04-18T03:47:11.204Z,5.35
2023-04-18T03:49:43.919Z,5.42
2023-04-18T03:52:12.066Z,5.39
2023-04-18T03:54:40.126Z,5.53
2023-04-18T03:57:08.046Z,5.34
2023-04-18T03:59:38.386Z,5.29
2023-04-18T04:02:07.876Z,5.43
2023-04-18T04:04:36.153Z,5.61
2023-04-18T04:07:05.624Z,5.83
2023-04-18T04:09:33.587Z,5.75
2023-04-18T04:12:03.040Z,5.70
2023-04-18T04:14:31.209Z,5.76
2023-04-18T04:16:59.218Z,5.73
2023-04-18T04:19:27.183Z,5.76
2023-04-18T04:22:07.912Z,5.86
2023-04-18T04:24:38.470Z,5.77
2023-04-18T04:27:08.200Z,5.95
2023-04-18T04:29:39.141Z,5.87
2023-04-18T04:32:08.451Z,5.92
2023-04-18T04:34:41.430Z,6.08
2023-04-18T04:37:14.075Z,6.05
2023-04-18T04:39:53.336Z,6.02
2023-04-18T04:42:59.753Z,6.07
2023-04-18T04:45:34.135Z,6.04
2023-04-18T04:48:02.294Z,6.21
2023-04-18T04:50:30.311Z,6.28
2023-04-18T04:52:59.579Z,6.13
2023-04-18T04:55:27.533Z,6.27
2023-04-18T04:57:55.841Z,6.14
2023-04-18T05:00:47.255Z,6.36
2023-04-18T05:03:16.066Z,6.31
2023-04-18T05:05:44.353Z,6.38
2023-04-18T05:08:13.717Z,6.60
2023-04-18T05:10:43.234Z,6.69
2023-04-18T05:13:13.575Z,6.57
2023-04-18T05:15:41.748Z,6.63
2023-04-18T05:18:09.726Z,6.65
2023-04-18T05:20:37.829Z,6.86
2023-04-18T05:23:05.712Z,7.07
2023-04-18T05:25:35.178Z,6.83
2023-04-18T05:28:04.670Z,6.70
2023-04-18T05:30:32.755Z,6.83
2023-04-18T05:33:01.089Z,6.66
2023-04-18T05:35:29.048Z,6.59
2023-04-18T05:37:57.010Z,6.63
2023-04-18T05:40:25.222Z,6.58
2023-04-18T05:42:54.643Z,6.72
2023-04-18T05:45:22.812Z,6.77
2023-04-18T05:47:51.230Z,6.99
2023-04-18T05:50:19.184Z,7.09
2023-04-18T05:52:47.309Z,7.15
2023-04-18T05:55:15.475Z,7.29
2023-04-18T05:57:43.661Z,7.43
2023-04-18T06:00:14.593Z,7.44
2023-04-18T06:02:42.769Z,7.35
2023-04-18T06:05:11.501Z,7.40
2023-04-18T06:07:40.063Z,7.36
2023-04-18T06:10:13.435Z,7.29
2023-04-18T06:12:41.663Z,7.24
2023-04-18T06:15:11.374Z,7.24
2023-04-18T06:17:40.786Z,7.30
2023-04-18T06:20:10.319Z,7.44
2023-04-18T06:22:38.422Z,7.45
2023-04-18T06:25:08.867Z,7.48
2023-04-18T06:27:37.168Z,7.28
2023-04-18T06:30:07.063Z,7.33
2023-04-18T06:32:35.365Z,7.52
2023-04-18T06:35:05.300Z,7.49
2023-04-18T06:37:33.402Z,7.71
2023-04-18T06:40:01.357Z,7.76
2023-04-18T06:42:29.461Z,7.86
2023-04-18T06:44:57.396Z,7.87
2023-04-18T06:47:25.655Z,8.02
2023-04-18T06:49:53.683Z,8.16
2023-04-18T06:52:23.010Z,8.10
2023-04-18T06:54:50.987Z,8.11
2023-04-18T06:57:19.024Z,8.11
2023-04-18T06:59:46.974Z,8.20
2023-04-18T07:02:15.560Z,8.13
2023-04-18T07:04:43.664Z,8.17
2023-04-18T07:07:11.662Z,8.25
2023-04-18T07:09:40.989Z,8.44
2023-04-18T07:12:09.102Z,8.41
2023-04-18T07:14:37.053Z,8.38
2023-04-18T07:17:05.229Z,8.44
2023-04-18T07:19:33.293Z,8.44
2023-04-18T07:22:01.557Z,8.47
2023-04-18T07:24:29.910Z,8.68
2023-04-18T07:26:59.356Z,8.92
2023-04-18T07:29:27.406Z,8.84
2023-04-18T07:31:55.560Z,8.63
2023-04-18T07:34:23.615Z,8.68
2023-04-18T07:36:51.635Z,8.74
2023-04-18T07:39:19.633Z,8.67
2023-04-18T07:41:47.547Z,8.72
2023-04-18T07:44:16.973Z,8.85
2023-04-18T07:46:45.150Z,8.92
2023-04-18T07:49:13.439Z,8.85
2023-04-18T07:51:41.730Z,8.67
2023-04-18T07:54:11.125Z,8.82
2023-04-18T07:56:39.104Z,8.69
2023-04-18T07:59:06.977Z,8.83
2023-04-18T08:01:36.544Z,9.00
2023-04-18T08:04:05.070Z,9.22
2023-04-18T08:06:34.704Z,9.31
2023-04-18T08:09:05.621Z,9.57
2023-04-18T08:11:33.870Z,9.66
2023-04-18T08:14:02.361Z,9.39
2023-04-18T08:16:30.848Z,9.35
2023-04-18T08:19:00.280Z,9.24
2023-04-18T08:21:28.338Z,9.41
2023-04-18T08:23:57.002Z,9.20
2023-04-18T08:26:25.040Z,8.98
2023-04-18T08:28:53.078Z,9.06
2023-04-18T08:31:21.359Z,9.11
2023-04-18T08:33:49.694Z,9.09
2023-04-18T08:36:19.195Z,9.15
2023-04-18T08:38:47.619Z,9.37
2023-04-18T08:41:17.600Z,9.57
2023-04-18T08:43:48.990Z,9.90
2023-04-18T08:46:17.468Z,10.00
2023-04-18T08:48:47.844Z,9.96
2023-04-18T08:51:16.493Z,9.88
2023-04-18T08:53:45.907Z,10.23
2023-04-18T08:56:14.759Z,10.32
2023-04-18T08:58:45.283Z,10.22
2023-04-18T09:01:15.106Z,10.12
2023-04-18T09:03:44.257Z,10.16
2023-04-18T09:06:14.243Z,9.91
2023-04-18T09:08:43.616Z,9.97
2023-04-18T09:11:28.804Z,9.86
2023-04-18T09:13:59.022Z,9.74
2023-04-18T09:16:47.233Z,9.65
2023-04-18T09:19:18.117Z,9.79
2023-04-18T09:21:47.312Z,9.85
2023-04-18T09:24:23.989Z,9.85
2023-04-18T09:26:55.895Z,9.93
2023-04-18T09:29:24.878Z,10.07
2023-04-18T09:31:57.434Z,9.91
2023-04-18T09:34:26.417Z,9.72
2023-04-18T09:37:08.818Z,9.84
2023-04-18T09:39:38.873Z,10.16
2023-04-18T09:42:10.872Z,10.07
2023-04-18T09:44:39.551Z,10.38
2023-04-18T09:47:08.440Z,10.66
2023-04-18T09:49:36.511Z,10.63
2023-04-18T09:52:07.814Z,10.43
2023-04-18T09:54:39.809Z,10.57
2023-04-18T09:57:12.951Z,10.52
2023-04-18T09:59:44.298Z,10.68
2023-04-18T10:02:16.572Z,10.60
2023-04-18T10:04:45.423Z,10.58
2023-04-18T10:07:14.392Z,11.03
2023-04-18T10:09:44.627Z,10.97
2023-04-18T10:12:14.405Z,11.34
2023-04-18T10:14:44.097Z,11.40
2023-04-18T10:17:12.282Z,11.46
2023-04-18T10:19:42.043Z,11.74
2023-04-18T10:22:10.346Z,12.07
2023-04-18T10:24:53.277Z,11.94
2023-04-18T10:27:56.399Z,12.17
2023-04-18T10:30:54.506Z,12.40
2023-04-18T10:33:31.893Z,12.02
2023-04-18T10:36:02.434Z,12.25
2023-04-18T10:38:30.749Z,12.53
2023-04-18T10:41:18.749Z,12.67
2023-04-18T10:44:18.399Z,13.02
2023-04-18T10:47:22.188Z,13.31
2023-04-18T10:49:57.952Z,13.19
2023-04-18T10:52:26.399Z,13.50
2023-04-18T10:54:59.499Z,13.47
2023-04-18T10:57:38.964Z,13.41
2023-04-18T11:00:11.923Z,13.30
2023-04-18T11:02:40.491Z,13.19
2023-04-18T11:05:09.899Z,13.52
2023-04-18T11:07:38.984Z,13.39
2023-04-18T11:10:08.778Z,13.38
2023-04-18T11:12:38.359Z,13.66
2023-04-18T11:15:13.139Z,14.24
2023-04-18T11:17:41.457Z,14.83
2023-04-18T11:20:11.508Z,14.90
2023-04-18T11:22:50.658Z,14.12
2023-04-18T11:25:19.768Z,13.55
2023-04-18T11:27:51.878Z,14.37
2023-04-18T11:30:21.522Z,14.72
2023-04-18T11:32:51.748Z,14.48
2023-04-18T11:35:20.854Z,14.14
2023-04-18T11:37:50.287Z,14.05
2023-04-18T11:40:18.655Z,14.95
2023-04-18T11:42:46.772Z,14.93
2023-04-18T11:45:16.290Z,14.83
2023-04-18T11:47:47.429Z,15.02
2023-04-18T11:50:15.544Z,15.03
2023-04-18T11:52:43.650Z,14.78
2023-04-18T11:55:17.751Z,14.55
2023-04-18T11:57:53.201Z,13.81
2023-04-18T12:00:30.878Z,13.94
2023-04-18T12:03:01.895Z,13.82
2023-04-18T12:05:31.911Z,13.48
2023-04-18T12:08:07.095Z,13.88
2023-04-18T12:10:35.977Z,14.34
2023-04-18T12:13:08.241Z,14.98
2023-04-18T12:15:39.423Z,14.89
2023-04-18T12:18:09.506Z,15.53
2023-04-18T12:20:38.941Z,16.39
2023-04-18T12:23:08.004Z,16.77
2023-04-18T12:25:36.499Z,15.75
2023-04-18T12:28:05.692Z,15.49
2023-04-18T12:30:37.571Z,14.43
2023-04-18T12:33:09.314Z,14.38
2023-04-18T12:35:37.286Z,14.76
2023-04-18T12:38:06.058Z,14.40
2023-04-18T12:40:34.170Z,13.72
2023-04-18T12:43:03.683Z,13.75
2023-04-18T12:45:32.209Z,13.76
2023-04-18T12:48:00.465Z,13.55
2023-04-18T12:50:30.017Z,13.57
2023-04-18T12:53:00.446Z,13.62
2023-04-18T12:55:28.928Z,13.40
2023-04-18T12:57:58.141Z,13.74
2023-04-18T13:00:27.940Z,13.71
2023-04-18T13:02:56.499Z,13.67
2023-04-18T13:05:27.668Z,13.35
2023-04-18T13:08:15.204Z,13.39
2023-04-18T13:10:44.744Z,13.32
2023-04-18T13:13:12.946Z,13.18
2023-04-18T13:15:41.293Z,13.10
2023-04-18T13:18:09.505Z,12.94
2023-04-18T13:20:37.753Z,13.08
2023-04-18T13:23:07.136Z,13.01
2023-04-18T13:25:35.186Z,13.20
2023-04-18T13:28:03.255Z,14.30
2023-04-18T13:30:32.079Z,14.52
2023-04-18T13:33:00.138Z,13.65
2023-04-18T13:35:28.272Z,13.24
2023-04-18T13:37:56.358Z,13.27
2023-04-18T13:40:26.613Z,13.27
2023-04-18T13:42:54.741Z,13.45
2023-04-18T13:45:22.790Z,13.42
2023-04-18T13:47:50.937Z,13.29
2023-04-18T13:50:19.105Z,13.58
2023-04-18T13:52:49.312Z,13.78
2023-04-18T13:55:18.513Z,14.17
2023-04-18T13:57:47.915Z,14.06
2023-04-18T14:00:17.038Z,13.70
2023-04-18T14:02:45.383Z,13.46
2023-04-18T14:05:13.543Z,13.48
2023-04-18T14:07:41.553Z,13.47
2023-04-18T14:10:10.492Z,13.63
2023-04-18T14:12:40.079Z,13.63
2023-04-18T14:15:11.097Z,13.05
2023-04-18T14:17:39.202Z,13.07
2023-04-18T14:20:08.591Z,13.43
2023-04-18T14:22:36.770Z,13.78
2023-04-18T14:25:05.332Z,14.48
2023-04-18T14:27:33.369Z,14.41
2023-04-18T14:30:01.399Z,13.57
2023-04-18T14:32:30.869Z,13.17
2023-04-18T14:34:59.561Z,13.11
2023-04-18T14:37:28.309Z,13.11
2023-04-18T14:39:56.634Z,12.98
2023-04-18T14:42:24.650Z,12.82
2023-04-18T14:44:53.315Z,12.86
2023-04-18T14:47:22.032Z,14.01
2023-04-18T14:49:52.504Z,15.04
2023-04-18T14:52:20.595Z,15.31
2023-04-18T14:54:48.930Z,14.80
2023-04-18T14:57:16.982Z,14.47
2023-04-18T14:59:45.137Z,14.01
2023-04-18T15:02:13.309Z,13.60
2023-04-18T15:04:41.546Z,13.25
2023-04-18T15:07:11.041Z,14.28
2023-04-18T15:09:39.459Z,15.13
2023-04-18T15:12:08.110Z,15.96
2023-04-18T15:14:36.936Z,15.22
2023-04-18T15:17:08.044Z,14.48
2023-04-18T15:19:36.160Z,14.23
2023-04-18T15:22:04.270Z,14.51
2023-04-18T15:24:33.715Z,15.30
2023-04-18T15:27:01.976Z,15.98
2023-04-18T15:29:30.190Z,15.77
2023-04-18T15:31:58.407Z,14.49
2023-04-18T15:34:26.885Z,14.38
2023-04-18T15:36:54.994Z,14.70
2023-04-18T15:39:24.118Z,14.72
2023-04-18T15:41:55.510Z,14.73
2023-04-18T15:44:23.641Z,14.67
2023-04-18T15:46:51.961Z,14.46
2023-04-18T15:49:20.086Z,14.44
2023-04-18T15:51:48.191Z,14.22
2023-04-18T15:54:16.458Z,14.70
2023-04-18T15:56:44.823Z,15.11
2023-04-18T15:59:14.722Z,15.49
2023-04-18T16:01:44.554Z,16.11
2023-04-18T16:04:14.419Z,15.90
2023-04-18T16:06:42.680Z,15.83
2023-04-18T16:09:10.831Z,15.73
2023-04-18T16:11:38.863Z,16.46
2023-04-18T16:14:06.868Z,16.30
2023-04-18T16:16:36.355Z,16.34
2023-04-18T16:19:05.546Z,16.48
2023-04-18T16:21:33.764Z,15.92
2023-04-18T16:24:02.688Z,16.03
2023-04-18T16:26:30.768Z,16.12
2023-04-18T16:28:58.851Z,15.78
2023-04-18T16:31:26.955Z,15.29
2023-04-18T16:33:56.540Z,15.46
2023-04-18T16:36:24.729Z,15.84
2023-04-18T16:38:52.862Z,15.65
2023-04-18T16:41:21.009Z,15.51
2023-04-18T16:43:48.963Z,15.83
2023-04-18T16:46:17.121Z,16.19
2023-04-18T16:48:45.685Z,15.85
2023-04-18T16:51:15.130Z,15.53
2023-04-18T16:53:43.166Z,15.38
2023-04-18T16:56:11.318Z,14.83
2023-04-18T16:58:39.352Z,15.11
2023-04-18T17:01:08.318Z,14.91
2023-04-18T17:03:36.848Z,14.92
2023-04-18T17:06:05.895Z,14.73
2023-04-18T17:08:36.028Z,14.72
2023-04-18T17:11:04.312Z,14.38
2023-04-18T17:13:32.574Z,13.84
2023-04-18T17:16:00.886Z,13.91
2023-04-18T17:18:29.488Z,13.74
2023-04-18T17:20:57.596Z,13.21
2023-04-18T17:23:25.610Z,13.00
2023-04-18T17:25:55.039Z,12.81
2023-04-18T17:28:25.068Z,12.70
2023-04-18T17:30:53.068Z,12.60
2023-04-18T17:33:21.088Z,12.49
2023-04-18T17:35:49.284Z,12.30
2023-04-18T17:38:17.386Z,12.27
2023-04-18T17:40:45.450Z,12.09
2023-04-18T17:43:14.922Z,11.99
2023-04-18T17:45:44.121Z,11.96
2023-04-18T17:48:12.294Z,11.87
2023-04-18T17:50:42.463Z,11.86
2023-04-18T17:53:12.459Z,11.57
2023-04-18T17:55:41.727Z,11.41
2023-04-18T17:58:09.979Z,11.41
2023-04-18T18:00:39.465Z,11.23
2023-04-18T18:03:09.312Z,11.22
2023-04-18T18:05:37.432Z,11.10
2023-04-18T18:08:05.829Z,10.95
2023-04-18T18:10:34.464Z,10.84
2023-04-18T18:13:02.449Z,10.68
2023-04-18T18:15:31.054Z,10.57
2023-04-18T18:18:01.868Z,10.39
2023-04-18T18:20:30.938Z,10.32
2023-04-18T18:22:59.753Z,10.21
2023-04-18T18:25:28.618Z,10.09
2023-04-18T18:27:56.705Z,9.98
2023-04-18T18:30:25.026Z,9.92
2023-04-18T18:32:54.303Z,9.84
2023-04-18T18:35:23.981Z,9.85
2023-04-18T18:37:52.021Z,9.66
2023-04-18T18:40:20.500Z,9.55
2023-04-18T18:42:51.255Z,9.49
2023-04-18T18:45:21.162Z,9.34
2023-04-18T18:47:49.636Z,9.24
2023-04-18T18:50:18.202Z,9.16
2023-04-18T18:52:48.450Z,9.09
2023-04-18T18:55:18.258Z,8.97
2023-04-18T18:57:46.491Z,8.98
2023-04-18T19:00:15.190Z,8.93
2023-04-18T19:02:43.499Z,8.87
2023-04-18T19:05:12.858Z,8.85
2023-04-18T19:07:42.418Z,8.73
2023-04-18T19:10:12.277Z,8.75
2023-04-18T19:12:40.377Z,8.67
2023-04-18T19:15:09.635Z,8.62
2023-04-18T19:17:37.745Z,8.54
2023-04-18T19:20:06.790Z,8.50
2023-04-18T19:22:35.009Z,8.44
2023-04-18T19:25:04.478Z,8.30
2023-04-18T19:27:33.824Z,8.23
2023-04-18T19:30:01.840Z,8.22
2023-04-18T19:32:32.687Z,8.23
2023-04-18T19:35:00.846Z,8.07
2023-04-18T19:37:28.925Z,8.19
2023-04-18T19:39:57.055Z,8.17
2023-04-18T19:42:25.114Z,8.14
2023-04-18T19:44:56.415Z,7.96
2023-04-18T19:47:25.111Z,7.85
2023-04-18T19:49:53.191Z,7.88
2023-04-18T19:52:21.282Z,7.77
2023-04-18T19:54:49.415Z,7.78
2023-04-18T19:57:17.478Z,7.68
2023-04-18T19:59:45.583Z,7.67
2023-04-18T20:02:15.111Z,7.54
2023-04-18T20:04:44.207Z,7.42
2023-04-18T20:07:12.405Z,7.23
2023-04-18T20:09:42.592Z,7.13
2023-04-18T20:12:10.631Z,7.09
2023-04-18T20:14:38.656Z,6.99
2023-04-18T20:17:06.706Z,7.15
2023-04-18T20:19:36.417Z,7.18
2023-04-18T20:22:04.725Z,7.23
2023-04-18T20:24:34.603Z,7.27
2023-04-18T20:27:03.115Z,7.20
2023-04-18T20:29:31.305Z,7.21
2023-04-18T20:31:59.364Z,7.04
2023-04-18T20:34:27.422Z,7.14
2023-04-18T20:36:57.913Z,7.04
2023-04-18T20:39:26.398Z,7.06
2023-04-18T20:41:57.585Z,7.03
2023-04-18T20:44:28.152Z,7.02
2023-04-18T20:46:56.175Z,6.97
2023-04-18T20:49:24.381Z,6.95
2023-04-18T20:51:52.467Z,6.91
2023-04-18T20:54:21.897Z,6.92
2023-04-18T20:56:49.999Z,6.91
2023-04-18T20:59:18.071Z,6.91
2023-04-18T21:01:46.971Z,6.92
2023-04-18T21:04:15.482Z,6.90
2023-04-18T21:06:43.967Z,6.87
2023-04-18T21:09:12.016Z,6.81
2023-04-18T21:11:41.345Z,6.86
2023-04-18T21:14:09.296Z,6.79
2023-04-18T21:16:39.530Z,6.75
2023-04-18T21:19:08.515Z,6.66
2023-04-18T21:21:36.582Z,6.72
2023-04-18T21:24:05.684Z,6.72
2023-04-18T21:26:33.675Z,6.65
2023-04-18T21:29:04.771Z,6.65
2023-04-18T21:31:33.918Z,6.68
2023-04-18T21:34:05.287Z,6.70
2023-04-18T21:36:33.675Z,6.61
2023-04-18T21:39:02.210Z,6.67
2023-04-18T21:41:30.234Z,6.62
2023-04-18T21:43:58.194Z,6.56
2023-04-18T21:46:27.625Z,6.70
2023-04-18T21:48:55.658Z,6.57
2023-04-18T21:51:23.867Z,6.52
2023-04-18T21:53:52.024Z,6.52
2023-04-18T21:56:20.315Z,6.63
2023-04-18T21:58:48.311Z,6.51
2023-04-18T22:01:16.476Z,6.46
2023-04-18T22:03:46.335Z,6.50
2023-04-18T22:06:14.494Z,6.41
2023-04-18T22:08:43.743Z,6.33
2023-04-18T22:11:13.646Z,6.50
2023-04-18T22:13:44.940Z,6.50
2023-04-18T22:16:13.389Z,6.43
2023-04-18T22:18:41.353Z,6.40
2023-04-18T22:21:12.254Z,6.26
2023-04-18T22:23:40.475Z,6.26
2023-04-18T22:26:08.487Z,6.20
2023-04-18T22:28:36.654Z,6.19
2023-04-18T22:31:04.970Z,6.13
2023-04-18T22:33:33.110Z,6.21
2023-04-18T22:36:01.913Z,6.18
2023-04-18T22:38:31.409Z,6.05
2023-04-18T22:41:00.207Z,6.02
2023-04-18T22:43:28.279Z,5.96
2023-04-18T22:45:56.304Z,5.85
2023-04-18T22:48:24.356Z,5.76
2023-04-18T22:50:52.326Z,5.75
2023-04-18T22:53:20.531Z,5.59
2023-04-18T22:55:49.939Z,5.65
2023-04-18T22:58:18.985Z,5.75
2023-04-18T23:00:46.914Z,5.76
2023-04-18T23:03:15.120Z,5.74
2023-04-18T23:05:43.334Z,5.66
2023-04-18T23:08:11.970Z,5.67
2023-04-18T23:10:40.088Z,5.70
2023-04-18T23:13:09.604Z,5.54
2023-04-18T23:15:37.694Z,5.44
2023-04-18T23:18:05.995Z,5.36
2023-04-18T23:20:34.069Z,5.33
2023-04-18T23:23:02.266Z,5.35
2023-04-18T23:25:32.540Z,5.31
2023-04-18T23:28:00.808Z,5.32
2023-04-18T23:30:30.268Z,5.45
2023-04-18T23:32:58.411Z,5.47
2023-04-18T23:35:26.564Z,5.47
2023-04-18T23:37:54.525Z,5.47
2023-04-18T23:40:23.138Z,5.58
2023-04-18T23:42:51.188Z,5.53
2023-04-18T23:45:19.298Z,5.50
2023-04-18T23:47:48.785Z,5.53
2023-04-18T23:50:17.203Z,5.43
2023-04-18T23:52:45.191Z,5.33
2023-04-18T23:55:14.550Z,5.20
2023-04-18T23:57:42.622Z,5.12
